sensor_id;sensor_type;location;lat;lon;timestamp;P1;durP1;ratioP1;P2;durP2;ratioP2
23258;SDS011;11798;51.528;7.240;2023-02-15T00:00:11;34.00;;;20.10;;
23258;SDS011;11798;51.528;7.240;2023-02-15T00:02:37;32.33;;;19.63;;
23258;SDS011;11798;51.528;7.240;2023-02-15T00:05:03;35.03;;;20.47;;
23258;SDS011;11798;51.528;7.240;2023-02-15T00:07:28;33.00;;;20.23;;
23258;SDS011;11798;51.528;7.240;2023-02-15T00:09:54;36.73;;;20.13;;
23258;SDS011;11798;51.528;7.240;2023-02-15T00:12:20;37.30;;;20.47;;
23258;SDS011;11798;51.528;7.240;2023-02-15T00:14:47;39.53;;;22.00;;
23258;SDS011;11798;51.528;7.240;2023-02-15T00:17:13;36.00;;;19.87;;
23258;SDS011;11798;51.528;7.240;2023-02-15T00:19:38;37.63;;;20.37;;
23258;SDS011;11798;51.528;7.240;2023-02-15T00:22:05;38.03;;;20.47;;
23258;SDS011;11798;51.528;7.240;2023-02-15T00:24:31;39.57;;;21.73;;
23258;SDS011;11798;51.528;7.240;2023-02-15T00:26:56;37.83;;;20.87;;
23258;SDS011;11798;51.528;7.240;2023-02-15T00:29:22;38.13;;;21.13;;
23258;SDS011;11798;51.528;7.240;2023-02-15T00:31:48;35.90;;;20.90;;
23258;SDS011;11798;51.528;7.240;2023-02-15T00:34:18;35.80;;;19.93;;
23258;SDS011;11798;51.528;7.240;2023-02-15T00:36:45;37.23;;;20.60;;
23258;SDS011;11798;51.528;7.240;2023-02-15T00:39:11;39.90;;;21.17;;
23258;SDS011;11798;51.528;7.240;2023-02-15T00:41:37;40.20;;;21.43;;
23258;SDS011;11798;51.528;7.240;2023-02-15T00:44:03;34.77;;;20.30;;
23258;SDS011;11798;51.528;7.240;2023-02-15T00:46:29;36.50;;;21.43;;
23258;SDS011;11798;51.528;7.240;2023-02-15T00:48:55;34.43;;;20.50;;
23258;SDS011;11798;51.528;7.240;2023-02-15T00:51:21;40.63;;;21.43;;
23258;SDS011;11798;51.528;7.240;2023-02-15T00:53:47;34.77;;;20.20;;
23258;SDS011;11798;51.528;7.240;2023-02-15T00:56:13;32.33;;;19.63;;
23258;SDS011;11798;51.528;7.240;2023-02-15T00:58:39;39.07;;;21.13;;
23258;SDS011;11798;51.528;7.240;2023-02-15T01:01:06;35.03;;;21.13;;
23258;SDS011;11798;51.528;7.240;2023-02-15T01:03:36;34.70;;;20.07;;
23258;SDS011;11798;51.528;7.240;2023-02-15T01:06:02;33.20;;;19.57;;
23258;SDS011;11798;51.528;7.240;2023-02-15T01:08:29;36.23;;;20.33;;
23258;SDS011;11798;51.528;7.240;2023-02-15T01:10:56;38.47;;;20.63;;
23258;SDS011;11798;51.528;7.240;2023-02-15T01:13:22;35.63;;;22.03;;
23258;SDS011;11798;51.528;7.240;2023-02-15T01:15:54;36.40;;;20.50;;
23258;SDS011;11798;51.528;7.240;2023-02-15T01:18:21;40.37;;;21.50;;
23258;SDS011;11798;51.528;7.240;2023-02-15T01:20:47;39.30;;;22.40;;
23258;SDS011;11798;51.528;7.240;2023-02-15T01:23:13;39.50;;;21.80;;
23258;SDS011;11798;51.528;7.240;2023-02-15T01:25:38;37.63;;;22.03;;
23258;SDS011;11798;51.528;7.240;2023-02-15T01:28:04;43.77;;;22.93;;
23258;SDS011;11798;51.528;7.240;2023-02-15T01:30:30;40.63;;;21.20;;
23258;SDS011;11798;51.528;7.240;2023-02-15T01:32:57;39.07;;;22.43;;
23258;SDS011;11798;51.528;7.240;2023-02-15T01:35:22;44.60;;;23.30;;
23258;SDS011;11798;51.528;7.240;2023-02-15T01:37:48;43.57;;;23.20;;
23258;SDS011;11798;51.528;7.240;2023-02-15T01:40:16;41.03;;;22.60;;
23258;SDS011;11798;51.528;7.240;2023-02-15T01:42:42;44.33;;;22.77;;
23258;SDS011;11798;51.528;7.240;2023-02-15T01:50:50;41.30;;;21.97;;
23258;SDS011;11798;51.528;7.240;2023-02-15T01:53:34;37.93;;;20.67;;
23258;SDS011;11798;51.528;7.240;2023-02-15T01:56:08;37.37;;;22.27;;
23258;SDS011;11798;51.528;7.240;2023-02-15T01:58:39;43.73;;;23.87;;
23258;SDS011;11798;51.528;7.240;2023-02-15T02:01:06;42.07;;;22.47;;
23258;SDS011;11798;51.528;7.240;2023-02-15T02:06:27;36.60;;;21.97;;
23258;SDS011;11798;51.528;7.240;2023-02-15T02:08:54;40.97;;;22.57;;
23258;SDS011;11798;51.528;7.240;2023-02-15T02:11:20;44.13;;;22.27;;
23258;SDS011;11798;51.528;7.240;2023-02-15T02:13:45;41.17;;;22.07;;
23258;SDS011;11798;51.528;7.240;2023-02-15T02:18:41;43.00;;;22.97;;
23258;SDS011;11798;51.528;7.240;2023-02-15T02:32:47;39.67;;;21.67;;
23258;SDS011;11798;51.528;7.240;2023-02-15T02:43:52;44.13;;;23.10;;
23258;SDS011;11798;51.528;7.240;2023-02-15T02:46:38;44.33;;;22.60;;
23258;SDS011;11798;51.528;7.240;2023-02-15T02:49:38;43.70;;;22.03;;
23258;SDS011;11798;51.528;7.240;2023-02-15T02:52:32;45.40;;;24.23;;
23258;SDS011;11798;51.528;7.240;2023-02-15T02:55:13;48.87;;;25.03;;
23258;SDS011;11798;51.528;7.240;2023-02-15T02:58:28;43.67;;;22.53;;
23258;SDS011;11798;51.528;7.240;2023-02-15T03:00:48;39.57;;;22.53;;
23258;SDS011;11798;51.528;7.240;2023-02-15T03:06:00;46.33;;;23.47;;
23258;SDS011;11798;51.528;7.240;2023-02-15T03:08:39;44.60;;;23.07;;
23258;SDS011;11798;51.528;7.240;2023-02-15T03:11:08;46.93;;;25.50;;
23258;SDS011;11798;51.528;7.240;2023-02-15T03:13:36;51.70;;;25.33;;
23258;SDS011;11798;51.528;7.240;2023-02-15T03:16:02;44.83;;;24.60;;
23258;SDS011;11798;51.528;7.240;2023-02-15T03:18:49;50.53;;;26.67;;
23258;SDS011;11798;51.528;7.240;2023-02-15T03:21:25;49.23;;;25.27;;
23258;SDS011;11798;51.528;7.240;2023-02-15T03:24:13;45.60;;;25.47;;
23258;SDS011;11798;51.528;7.240;2023-02-15T03:26:43;47.03;;;24.17;;
23258;SDS011;11798;51.528;7.240;2023-02-15T03:29:12;51.03;;;25.70;;
23258;SDS011;11798;51.528;7.240;2023-02-15T03:31:40;49.57;;;24.77;;
23258;SDS011;11798;51.528;7.240;2023-02-15T03:34:10;44.67;;;23.20;;
23258;SDS011;11798;51.528;7.240;2023-02-15T03:42:19;44.97;;;23.13;;
23258;SDS011;11798;51.528;7.240;2023-02-15T03:44:58;45.83;;;24.47;;
23258;SDS011;11798;51.528;7.240;2023-02-15T03:47:37;48.20;;;24.27;;
23258;SDS011;11798;51.528;7.240;2023-02-15T03:50:08;49.13;;;25.23;;
23258;SDS011;11798;51.528;7.240;2023-02-15T03:52:56;45.40;;;24.47;;
23258;SDS011;11798;51.528;7.240;2023-02-15T03:55:25;50.37;;;26.43;;
23258;SDS011;11798;51.528;7.240;2023-02-15T03:57:51;53.73;;;27.33;;
23258;SDS011;11798;51.528;7.240;2023-02-15T04:00:36;50.73;;;26.67;;
23258;SDS011;11798;51.528;7.240;2023-02-15T04:05:58;47.33;;;25.13;;
23258;SDS011;11798;51.528;7.240;2023-02-15T04:08:27;51.67;;;27.43;;
23258;SDS011;11798;51.528;7.240;2023-02-15T04:11:11;51.87;;;26.90;;
23258;SDS011;11798;51.528;7.240;2023-02-15T04:13:37;51.27;;;26.20;;
23258;SDS011;11798;51.528;7.240;2023-02-15T04:16:03;50.70;;;28.00;;
23258;SDS011;11798;51.528;7.240;2023-02-15T04:18:47;53.60;;;28.47;;
23258;SDS011;11798;51.528;7.240;2023-02-15T04:21:31;53.27;;;26.53;;
23258;SDS011;11798;51.528;7.240;2023-02-15T04:24:15;57.27;;;27.40;;
23258;SDS011;11798;51.528;7.240;2023-02-15T04:27:00;49.87;;;26.63;;
23258;SDS011;11798;51.528;7.240;2023-02-15T04:29:27;53.30;;;27.67;;
23258;SDS011;11798;51.528;7.240;2023-02-15T04:31:54;50.03;;;27.57;;
23258;SDS011;11798;51.528;7.240;2023-02-15T04:34:21;54.90;;;28.20;;
23258;SDS011;11798;51.528;7.240;2023-02-15T04:36:47;56.10;;;28.90;;
23258;SDS011;11798;51.528;7.240;2023-02-15T04:39:13;58.30;;;28.57;;
23258;SDS011;11798;51.528;7.240;2023-02-15T04:41:40;55.70;;;29.37;;
23258;SDS011;11798;51.528;7.240;2023-02-15T04:44:06;55.53;;;27.80;;
23258;SDS011;11798;51.528;7.240;2023-02-15T04:46:32;52.33;;;27.13;;
23258;SDS011;11798;51.528;7.240;2023-02-15T04:48:58;58.83;;;30.63;;
23258;SDS011;11798;51.528;7.240;2023-02-15T04:51:23;55.67;;;28.13;;
23258;SDS011;11798;51.528;7.240;2023-02-15T04:53:49;55.37;;;28.27;;
23258;SDS011;11798;51.528;7.240;2023-02-15T04:56:17;53.70;;;28.10;;
23258;SDS011;11798;51.528;7.240;2023-02-15T04:58:44;55.23;;;27.07;;
23258;SDS011;11798;51.528;7.240;2023-02-15T05:01:10;53.13;;;27.60;;
23258;SDS011;11798;51.528;7.240;2023-02-15T05:03:35;54.87;;;29.07;;
23258;SDS011;11798;51.528;7.240;2023-02-15T05:06:01;56.73;;;29.63;;
23258;SDS011;11798;51.528;7.240;2023-02-15T05:08:27;55.60;;;29.73;;
23258;SDS011;11798;51.528;7.240;2023-02-15T05:10:53;59.57;;;30.20;;
23258;SDS011;11798;51.528;7.240;2023-02-15T05:13:19;54.90;;;28.17;;
23258;SDS011;11798;51.528;7.240;2023-02-15T05:15:48;54.50;;;28.57;;
23258;SDS011;11798;51.528;7.240;2023-02-15T05:18:15;57.80;;;28.83;;
23258;SDS011;11798;51.528;7.240;2023-02-15T05:20:41;53.93;;;27.93;;
23258;SDS011;11798;51.528;7.240;2023-02-15T05:23:06;52.80;;;28.67;;
23258;SDS011;11798;51.528;7.240;2023-02-15T05:25:32;54.47;;;27.93;;
23258;SDS011;11798;51.528;7.240;2023-02-15T05:28:16;57.43;;;28.27;;
23258;SDS011;11798;51.528;7.240;2023-02-15T05:30:45;54.10;;;29.90;;
23258;SDS011;11798;51.528;7.240;2023-02-15T05:33:30;59.20;;;27.97;;
23258;SDS011;11798;51.528;7.240;2023-02-15T05:35:56;57.67;;;29.03;;
23258;SDS011;11798;51.528;7.240;2023-02-15T05:38:22;61.63;;;29.33;;
23258;SDS011;11798;51.528;7.240;2023-02-15T05:40:48;56.00;;;29.73;;
23258;SDS011;11798;51.528;7.240;2023-02-15T05:43:15;53.70;;;28.10;;
23258;SDS011;11798;51.528;7.240;2023-02-15T05:45:43;61.20;;;30.53;;
23258;SDS011;11798;51.528;7.240;2023-02-15T05:48:13;55.13;;;30.23;;
23258;SDS011;11798;51.528;7.240;2023-02-15T05:50:39;55.63;;;29.63;;
23258;SDS011;11798;51.528;7.240;2023-02-15T05:53:04;55.83;;;29.43;;
23258;SDS011;11798;51.528;7.240;2023-02-15T05:55:30;54.73;;;29.00;;
23258;SDS011;11798;51.528;7.240;2023-02-15T05:57:56;56.10;;;28.83;;
23258;SDS011;11798;51.528;7.240;2023-02-15T06:00:21;54.00;;;28.40;;
23258;SDS011;11798;51.528;7.240;2023-02-15T06:02:47;59.73;;;30.77;;
23258;SDS011;11798;51.528;7.240;2023-02-15T06:05:13;54.73;;;29.80;;
23258;SDS011;11798;51.528;7.240;2023-02-15T06:07:38;60.07;;;30.20;;
23258;SDS011;11798;51.528;7.240;2023-02-15T06:10:04;58.77;;;31.40;;
23258;SDS011;11798;51.528;7.240;2023-02-15T06:12:30;62.07;;;29.87;;
23258;SDS011;11798;51.528;7.240;2023-02-15T06:14:56;53.73;;;28.60;;
23258;SDS011;11798;51.528;7.240;2023-02-15T06:17:22;52.23;;;28.63;;
23258;SDS011;11798;51.528;7.240;2023-02-15T06:19:47;55.70;;;29.27;;
23258;SDS011;11798;51.528;7.240;2023-02-15T06:22:13;55.73;;;29.13;;
23258;SDS011;11798;51.528;7.240;2023-02-15T06:24:39;51.07;;;27.60;;
23258;SDS011;11798;51.528;7.240;2023-02-15T06:27:07;56.67;;;29.53;;
23258;SDS011;11798;51.528;7.240;2023-02-15T06:29:33;58.10;;;29.03;;
23258;SDS011;11798;51.528;7.240;2023-02-15T06:31:59;59.33;;;28.57;;
23258;SDS011;11798;51.528;7.240;2023-02-15T06:34:25;58.40;;;29.87;;
23258;SDS011;11798;51.528;7.240;2023-02-15T06:36:50;56.40;;;29.17;;
23258;SDS011;11798;51.528;7.240;2023-02-15T06:39:16;59.57;;;30.47;;
23258;SDS011;11798;51.528;7.240;2023-02-15T06:41:42;56.93;;;28.83;;
23258;SDS011;11798;51.528;7.240;2023-02-15T06:44:07;63.73;;;31.40;;
23258;SDS011;11798;51.528;7.240;2023-02-15T06:46:33;58.80;;;29.73;;
23258;SDS011;11798;51.528;7.240;2023-02-15T06:48:59;57.43;;;29.27;;
23258;SDS011;11798;51.528;7.240;2023-02-15T06:51:24;53.60;;;27.83;;
23258;SDS011;11798;51.528;7.240;2023-02-15T06:53:50;55.73;;;30.30;;
23258;SDS011;11798;51.528;7.240;2023-02-15T06:56:15;54.63;;;29.30;;
23258;SDS011;11798;51.528;7.240;2023-02-15T06:58:41;58.87;;;29.00;;
23258;SDS011;11798;51.528;7.240;2023-02-15T07:01:08;55.50;;;29.77;;
23258;SDS011;11798;51.528;7.240;2023-02-15T07:03:34;58.47;;;29.00;;
23258;SDS011;11798;51.528;7.240;2023-02-15T07:06:01;60.93;;;29.80;;
23258;SDS011;11798;51.528;7.240;2023-02-15T07:08:28;59.93;;;30.83;;
23258;SDS011;11798;51.528;7.240;2023-02-15T07:10:55;59.10;;;30.83;;
23258;SDS011;11798;51.528;7.240;2023-02-15T07:13:43;58.53;;;28.97;;
23258;SDS011;11798;51.528;7.240;2023-02-15T07:16:09;64.13;;;30.93;;
23258;SDS011;11798;51.528;7.240;2023-02-15T07:18:35;62.30;;;30.87;;
23258;SDS011;11798;51.528;7.240;2023-02-15T07:21:00;62.17;;;31.70;;
23258;SDS011;11798;51.528;7.240;2023-02-15T07:23:26;57.20;;;30.10;;
23258;SDS011;11798;51.528;7.240;2023-02-15T07:25:59;63.07;;;30.70;;
23258;SDS011;11798;51.528;7.240;2023-02-15T07:28:25;57.43;;;30.40;;
23258;SDS011;11798;51.528;7.240;2023-02-15T07:30:50;58.03;;;29.60;;
23258;SDS011;11798;51.528;7.240;2023-02-15T07:33:16;59.10;;;30.07;;
23258;SDS011;11798;51.528;7.240;2023-02-15T07:35:52;58.63;;;30.87;;
23258;SDS011;11798;51.528;7.240;2023-02-15T07:38:19;62.40;;;31.17;;
23258;SDS011;11798;51.528;7.240;2023-02-15T07:40:46;55.37;;;29.83;;
23258;SDS011;11798;51.528;7.240;2023-02-15T07:43:12;58.37;;;30.67;;
23258;SDS011;11798;51.528;7.240;2023-02-15T07:45:38;56.13;;;29.30;;
23258;SDS011;11798;51.528;7.240;2023-02-15T07:48:05;54.07;;;29.10;;
23258;SDS011;11798;51.528;7.240;2023-02-15T07:50:32;55.70;;;30.57;;
23258;SDS011;11798;51.528;7.240;2023-02-15T07:52:58;54.80;;;30.27;;
23258;SDS011;11798;51.528;7.240;2023-02-15T07:55:26;58.30;;;29.17;;
23258;SDS011;11798;51.528;7.240;2023-02-15T07:57:52;58.97;;;29.77;;
23258;SDS011;11798;51.528;7.240;2023-02-15T08:00:19;57.30;;;29.57;;
23258;SDS011;11798;51.528;7.240;2023-02-15T08:02:50;58.97;;;30.30;;
23258;SDS011;11798;51.528;7.240;2023-02-15T08:05:37;55.27;;;28.73;;
23258;SDS011;11798;51.528;7.240;2023-02-15T08:08:07;64.73;;;31.20;;
23258;SDS011;11798;51.528;7.240;2023-02-15T08:10:33;55.47;;;29.23;;
23258;SDS011;11798;51.528;7.240;2023-02-15T08:13:19;52.60;;;29.03;;
23258;SDS011;11798;51.528;7.240;2023-02-15T08:15:51;55.13;;;30.03;;
23258;SDS011;11798;51.528;7.240;2023-02-15T08:18:16;52.63;;;28.47;;
23258;SDS011;11798;51.528;7.240;2023-02-15T08:20:42;53.07;;;28.80;;
23258;SDS011;11798;51.528;7.240;2023-02-15T08:23:13;49.67;;;28.23;;
23258;SDS011;11798;51.528;7.240;2023-02-15T08:25:38;56.93;;;30.37;;
23258;SDS011;11798;51.528;7.240;2023-02-15T08:28:04;57.17;;;30.83;;
23258;SDS011;11798;51.528;7.240;2023-02-15T08:30:30;57.80;;;30.23;;
23258;SDS011;11798;51.528;7.240;2023-02-15T08:32:55;61.70;;;32.57;;
23258;SDS011;11798;51.528;7.240;2023-02-15T08:35:21;57.60;;;32.03;;
23258;SDS011;11798;51.528;7.240;2023-02-15T08:37:46;60.07;;;32.93;;
23258;SDS011;11798;51.528;7.240;2023-02-15T08:40:12;67.13;;;35.57;;
23258;SDS011;11798;51.528;7.240;2023-02-15T08:42:38;90.00;;;48.77;;
23258;SDS011;11798;51.528;7.240;2023-02-15T08:45:04;90.70;;;50.33;;
23258;SDS011;11798;51.528;7.240;2023-02-15T08:47:30;111.93;;;58.47;;
23258;SDS011;11798;51.528;7.240;2023-02-15T08:49:55;62.50;;;34.70;;
23258;SDS011;11798;51.528;7.240;2023-02-15T08:52:21;59.63;;;32.97;;
23258;SDS011;11798;51.528;7.240;2023-02-15T08:54:47;146.20;;;66.17;;
23258;SDS011;11798;51.528;7.240;2023-02-15T08:57:12;133.57;;;57.73;;
23258;SDS011;11798;51.528;7.240;2023-02-15T08:59:38;117.63;;;56.97;;
23258;SDS011;11798;51.528;7.240;2023-02-15T09:02:03;107.87;;;53.47;;
23258;SDS011;11798;51.528;7.240;2023-02-15T09:04:29;102.70;;;49.80;;
23258;SDS011;11798;51.528;7.240;2023-02-15T09:06:55;90.83;;;47.43;;
23258;SDS011;11798;51.528;7.240;2023-02-15T09:09:20;74.00;;;36.67;;
23258;SDS011;11798;51.528;7.240;2023-02-15T09:11:47;70.77;;;37.63;;
23258;SDS011;11798;51.528;7.240;2023-02-15T09:14:15;60.97;;;33.17;;
23258;SDS011;11798;51.528;7.240;2023-02-15T09:16:45;69.13;;;34.83;;
23258;SDS011;11798;51.528;7.240;2023-02-15T09:19:13;73.00;;;39.47;;
23258;SDS011;11798;51.528;7.240;2023-02-15T09:21:40;58.07;;;34.67;;
23258;SDS011;11798;51.528;7.240;2023-02-15T09:24:07;56.23;;;30.20;;
23258;SDS011;11798;51.528;7.240;2023-02-15T09:26:35;63.27;;;32.83;;
23258;SDS011;11798;51.528;7.240;2023-02-15T09:29:05;53.03;;;29.77;;
23258;SDS011;11798;51.528;7.240;2023-02-15T09:31:38;47.67;;;27.00;;
23258;SDS011;11798;51.528;7.240;2023-02-15T09:34:10;48.53;;;27.07;;
23258;SDS011;11798;51.528;7.240;2023-02-15T09:36:37;51.37;;;26.70;;
23258;SDS011;11798;51.528;7.240;2023-02-15T09:39:09;46.00;;;27.20;;
23258;SDS011;11798;51.528;7.240;2023-02-15T10:12:36;53.90;;;28.73;;
23258;SDS011;11798;51.528;7.240;2023-02-15T10:15:15;50.47;;;28.03;;
23258;SDS011;11798;51.528;7.240;2023-02-15T10:26:19;41.47;;;25.30;;
23258;SDS011;11798;51.528;7.240;2023-02-15T10:28:58;40.17;;;24.43;;
23258;SDS011;11798;51.528;7.240;2023-02-15T10:39:46;39.27;;;21.87;;
23258;SDS011;11798;51.528;7.240;2023-02-15T10:45:30;27.70;;;17.17;;
23258;SDS011;11798;51.528;7.240;2023-02-15T11:01:38;27.97;;;17.10;;
23258;SDS011;11798;51.528;7.240;2023-02-15T11:07:25;26.23;;;14.77;;
23258;SDS011;11798;51.528;7.240;2023-02-15T11:10:01;26.97;;;14.90;;
23258;SDS011;11798;51.528;7.240;2023-02-15T11:12:31;24.03;;;14.83;;
23258;SDS011;11798;51.528;7.240;2023-02-15T11:15:00;25.80;;;14.93;;
23258;SDS011;11798;51.528;7.240;2023-02-15T11:17:39;26.90;;;14.37;;
23258;SDS011;11798;51.528;7.240;2023-02-15T11:22:40;26.00;;;15.17;;
23258;SDS011;11798;51.528;7.240;2023-02-15T11:25:17;24.33;;;14.67;;
23258;SDS011;11798;51.528;7.240;2023-02-15T11:27:46;24.57;;;14.87;;
23258;SDS011;11798;51.528;7.240;2023-02-15T11:30:14;24.43;;;14.00;;
23258;SDS011;11798;51.528;7.240;2023-02-15T11:32:45;26.47;;;14.53;;
23258;SDS011;11798;51.528;7.240;2023-02-15T11:35:26;21.10;;;13.67;;
23258;SDS011;11798;51.528;7.240;2023-02-15T11:38:14;21.23;;;13.00;;
23258;SDS011;11798;51.528;7.240;2023-02-15T11:40:54;22.93;;;13.37;;
23258;SDS011;11798;51.528;7.240;2023-02-15T11:46:00;20.90;;;12.80;;
23258;SDS011;11798;51.528;7.240;2023-02-15T11:48:26;23.50;;;13.53;;
23258;SDS011;11798;51.528;7.240;2023-02-15T11:50:55;21.97;;;12.43;;
23258;SDS011;11798;51.528;7.240;2023-02-15T11:53:22;21.83;;;12.93;;
23258;SDS011;11798;51.528;7.240;2023-02-15T11:55:53;19.07;;;11.83;;
23258;SDS011;11798;51.528;7.240;2023-02-15T12:06:11;17.97;;;10.67;;
23258;SDS011;11798;51.528;7.240;2023-02-15T12:08:42;18.07;;;10.53;;
23258;SDS011;11798;51.528;7.240;2023-02-15T12:11:17;15.13;;;9.77;;
23258;SDS011;11798;51.528;7.240;2023-02-15T12:13:57;16.70;;;10.07;;
23258;SDS011;11798;51.528;7.240;2023-02-15T12:16:25;19.67;;;9.97;;
23258;SDS011;11798;51.528;7.240;2023-02-15T12:18:53;17.30;;;10.70;;
23258;SDS011;11798;51.528;7.240;2023-02-15T12:21:34;16.87;;;9.57;;
23258;SDS011;11798;51.528;7.240;2023-02-15T12:26:45;17.73;;;10.20;;
23258;SDS011;11798;51.528;7.240;2023-02-15T12:30:03;18.73;;;10.13;;
23258;SDS011;11798;51.528;7.240;2023-02-15T12:32:24;21.30;;;12.00;;
23258;SDS011;11798;51.528;7.240;2023-02-15T12:34:53;18.47;;;11.77;;
23258;SDS011;11798;51.528;7.240;2023-02-15T12:37:25;20.00;;;10.93;;
23258;SDS011;11798;51.528;7.240;2023-02-15T12:39:58;20.33;;;11.33;;
23258;SDS011;11798;51.528;7.240;2023-02-15T12:42:25;22.60;;;12.10;;
23258;SDS011;11798;51.528;7.240;2023-02-15T12:47:44;20.40;;;11.70;;
23258;SDS011;11798;51.528;7.240;2023-02-15T12:50:14;19.53;;;12.10;;
23258;SDS011;11798;51.528;7.240;2023-02-15T12:52:48;18.63;;;11.57;;
23258;SDS011;11798;51.528;7.240;2023-02-15T12:55:20;19.83;;;11.50;;
23258;SDS011;11798;51.528;7.240;2023-02-15T12:58:15;21.10;;;10.77;;
23258;SDS011;11798;51.528;7.240;2023-02-15T13:00:42;21.03;;;11.90;;
23258;SDS011;11798;51.528;7.240;2023-02-15T13:03:15;19.57;;;10.73;;
23258;SDS011;11798;51.528;7.240;2023-02-15T13:05:46;20.10;;;11.80;;
23258;SDS011;11798;51.528;7.240;2023-02-15T13:08:17;20.73;;;10.43;;
23258;SDS011;11798;51.528;7.240;2023-02-15T13:10:53;21.07;;;11.00;;
23258;SDS011;11798;51.528;7.240;2023-02-15T13:13:20;18.07;;;10.60;;
23258;SDS011;11798;51.528;7.240;2023-02-15T13:15:52;17.77;;;10.80;;
23258;SDS011;11798;51.528;7.240;2023-02-15T13:18:26;20.63;;;11.23;;
23258;SDS011;11798;51.528;7.240;2023-02-15T13:20:56;18.13;;;11.43;;
23258;SDS011;11798;51.528;7.240;2023-02-15T13:23:27;19.50;;;11.43;;
23258;SDS011;11798;51.528;7.240;2023-02-15T13:25:55;23.03;;;11.13;;
23258;SDS011;11798;51.528;7.240;2023-02-15T13:28:25;19.67;;;10.60;;
23258;SDS011;11798;51.528;7.240;2023-02-15T13:31:14;20.67;;;11.10;;
23258;SDS011;11798;51.528;7.240;2023-02-15T13:33:44;23.77;;;11.50;;
23258;SDS011;11798;51.528;7.240;2023-02-15T13:44:28;18.83;;;10.33;;
23258;SDS011;11798;51.528;7.240;2023-02-15T13:47:32;17.93;;;10.17;;
23258;SDS011;11798;51.528;7.240;2023-02-15T13:50:29;21.23;;;11.87;;
23258;SDS011;11798;51.528;7.240;2023-02-15T14:06:14;25.27;;;12.67;;
23258;SDS011;11798;51.528;7.240;2023-02-15T14:08:50;22.23;;;12.23;;
23258;SDS011;11798;51.528;7.240;2023-02-15T14:14:01;22.27;;;11.60;;
23258;SDS011;11798;51.528;7.240;2023-02-15T14:17:02;22.53;;;12.00;;
23258;SDS011;11798;51.528;7.240;2023-02-15T14:30:18;23.83;;;11.87;;
23258;SDS011;11798;51.528;7.240;2023-02-15T14:32:49;25.93;;;12.77;;
23258;SDS011;11798;51.528;7.240;2023-02-15T14:35:19;24.73;;;12.00;;
23258;SDS011;11798;51.528;7.240;2023-02-15T14:46:24;23.27;;;12.57;;
23258;SDS011;11798;51.528;7.240;2023-02-15T14:49:12;23.27;;;12.20;;
23258;SDS011;11798;51.528;7.240;2023-02-15T14:54:08;21.90;;;12.07;;
23258;SDS011;11798;51.528;7.240;2023-02-15T14:56:35;21.00;;;11.97;;
23258;SDS011;11798;51.528;7.240;2023-02-15T14:59:17;18.63;;;10.80;;
23258;SDS011;11798;51.528;7.240;2023-02-15T15:01:51;23.23;;;11.83;;
23258;SDS011;11798;51.528;7.240;2023-02-15T15:04:26;22.47;;;11.77;;
23258;SDS011;11798;51.528;7.240;2023-02-15T15:09:28;21.33;;;11.10;;
23258;SDS011;11798;51.528;7.240;2023-02-15T15:14:50;18.17;;;10.47;;
23258;SDS011;11798;51.528;7.240;2023-02-15T15:25:57;19.13;;;10.10;;
23258;SDS011;11798;51.528;7.240;2023-02-15T15:31:16;18.90;;;10.67;;
23258;SDS011;11798;51.528;7.240;2023-02-15T15:42:37;18.77;;;9.80;;
23258;SDS011;11798;51.528;7.240;2023-02-15T15:50:53;18.13;;;9.23;;
23258;SDS011;11798;51.528;7.240;2023-02-15T15:53:27;18.00;;;9.93;;
23258;SDS011;11798;51.528;7.240;2023-02-15T15:55:58;18.70;;;9.47;;
23258;SDS011;11798;51.528;7.240;2023-02-15T15:58:29;20.43;;;9.87;;
23258;SDS011;11798;51.528;7.240;2023-02-15T16:01:09;19.03;;;9.53;;
23258;SDS011;11798;51.528;7.240;2023-02-15T16:03:38;14.93;;;9.40;;
23258;SDS011;11798;51.528;7.240;2023-02-15T16:06:26;17.70;;;9.30;;
23258;SDS011;11798;51.528;7.240;2023-02-15T16:11:40;19.43;;;9.10;;
23258;SDS011;11798;51.528;7.240;2023-02-15T16:14:14;19.63;;;9.63;;
23258;SDS011;11798;51.528;7.240;2023-02-15T16:16:46;18.43;;;8.87;;
23258;SDS011;11798;51.528;7.240;2023-02-15T16:19:26;21.67;;;9.80;;
23258;SDS011;11798;51.528;7.240;2023-02-15T16:22:00;21.27;;;9.77;;
23258;SDS011;11798;51.528;7.240;2023-02-15T16:24:35;23.93;;;10.43;;
23258;SDS011;11798;51.528;7.240;2023-02-15T16:29:36;20.60;;;9.63;;
23258;SDS011;11798;51.528;7.240;2023-02-15T16:32:24;21.00;;;10.17;;
23258;SDS011;11798;51.528;7.240;2023-02-15T16:34:50;17.13;;;9.77;;
23258;SDS011;11798;51.528;7.240;2023-02-15T16:37:17;21.83;;;9.97;;
23258;SDS011;11798;51.528;7.240;2023-02-15T16:39:45;19.53;;;10.13;;
23258;SDS011;11798;51.528;7.240;2023-02-15T16:42:13;21.53;;;10.10;;
23258;SDS011;11798;51.528;7.240;2023-02-15T16:44:41;19.17;;;10.03;;
23258;SDS011;11798;51.528;7.240;2023-02-15T16:47:14;24.07;;;11.37;;
23258;SDS011;11798;51.528;7.240;2023-02-15T16:49:52;19.53;;;10.83;;
23258;SDS011;11798;51.528;7.240;2023-02-15T16:52:22;23.50;;;10.60;;
23258;SDS011;11798;51.528;7.240;2023-02-15T16:55:03;22.10;;;12.10;;
23258;SDS011;11798;51.528;7.240;2023-02-15T16:57:35;25.40;;;11.47;;
23258;SDS011;11798;51.528;7.240;2023-02-15T17:00:04;23.70;;;11.93;;
23258;SDS011;11798;51.528;7.240;2023-02-15T17:02:52;27.00;;;12.60;;
23258;SDS011;11798;51.528;7.240;2023-02-15T17:05:20;27.07;;;12.63;;
23258;SDS011;11798;51.528;7.240;2023-02-15T17:07:50;31.23;;;13.93;;
23258;SDS011;11798;51.528;7.240;2023-02-15T17:10:37;30.90;;;14.83;;
23258;SDS011;11798;51.528;7.240;2023-02-15T17:13:13;30.67;;;15.63;;
23258;SDS011;11798;51.528;7.240;2023-02-15T17:15:45;31.73;;;16.77;;
23258;SDS011;11798;51.528;7.240;2023-02-15T17:18:30;32.07;;;16.97;;
23258;SDS011;11798;51.528;7.240;2023-02-15T17:20:58;36.13;;;19.63;;
23258;SDS011;11798;51.528;7.240;2023-02-15T17:23:42;36.37;;;20.17;;
23258;SDS011;11798;51.528;7.240;2023-02-15T17:26:16;36.97;;;20.80;;
23258;SDS011;11798;51.528;7.240;2023-02-15T17:28:50;47.67;;;23.27;;
23258;SDS011;11798;51.528;7.240;2023-02-15T17:31:20;40.87;;;22.77;;
23258;SDS011;11798;51.528;7.240;2023-02-15T17:33:46;40.93;;;21.27;;
23258;SDS011;11798;51.528;7.240;2023-02-15T17:41:22;44.53;;;22.50;;
23258;SDS011;11798;51.528;7.240;2023-02-15T17:43:48;36.93;;;21.57;;
23258;SDS011;11798;51.528;7.240;2023-02-15T17:46:14;34.20;;;18.63;;
23258;SDS011;11798;51.528;7.240;2023-02-15T17:48:43;37.00;;;20.10;;
23258;SDS011;11798;51.528;7.240;2023-02-15T17:51:12;34.73;;;19.07;;
23258;SDS011;11798;51.528;7.240;2023-02-15T17:53:39;34.40;;;18.57;;
23258;SDS011;11798;51.528;7.240;2023-02-15T17:56:05;31.43;;;17.30;;
23258;SDS011;11798;51.528;7.240;2023-02-15T17:58:36;35.33;;;17.30;;
23258;SDS011;11798;51.528;7.240;2023-02-15T18:01:10;31.00;;;18.33;;
23258;SDS011;11798;51.528;7.240;2023-02-15T18:04:00;31.17;;;17.77;;
23258;SDS011;11798;51.528;7.240;2023-02-15T18:06:44;31.47;;;17.33;;
23258;SDS011;11798;51.528;7.240;2023-02-15T18:09:28;32.57;;;16.30;;
23258;SDS011;11798;51.528;7.240;2023-02-15T18:12:20;30.40;;;17.83;;
23258;SDS011;11798;51.528;7.240;2023-02-15T18:14:48;29.87;;;16.33;;
23258;SDS011;11798;51.528;7.240;2023-02-15T18:17:15;30.80;;;17.30;;